Time;durP1;ratioP1;P1;durP2;ratioP2;P2;SDS_P1;SDS_P2;PMS_P1;PMS_P2;Temp;Humidity;BMP_temperature;BMP_pressure;BME280_temperature;BME280_humidity;BME280_pressure;Samples;Min_cycle;Max_cycle;Signal;HPM_P1;HPM_P2
2022/09/02 00:02:36;;;;;;;1.80;0.70;;;;;;;19.45;42.74;100619.16;18369561;32;20092;-56
2022/09/02 00:12:39;;;;;;;1.37;0.60;;;;;;;19.56;42.41;100624.94;18355549;32;20133;-55
2022/09/02 00:22:44;;;;;;;3.92;0.90;;;;;;;19.44;41.80;100617.44;18369635;32;20116;-55
2022/09/02 00:32:47;;;;;;;1.17;0.68;;;;;;;19.47;42.65;100618.19;18369227;32;20098;-55
2022/09/02 00:42:52;;;;;;;0.98;0.70;;;;;;;19.39;42.15;100615.81;18379913;32;20151;-56
2022/09/02 00:52:59;;;;;;;2.08;0.80;;;;;;;19.69;41.26;100604.16;18370731;32;20370;-55
2022/09/02 01:03:06;;;;;;;2.85;0.80;;;;;;;19.50;42.54;100606.63;18368434;32;20097;-55
2022/09/02 01:13:11;;;;;;;2.15;0.60;;;;;;;19.62;42.15;100605.31;18367844;32;20085;-55
2022/09/02 01:23:16;;;;;;;3.15;0.80;;;;;;;19.76;41.45;100595.06;18367335;32;20119;-56
2022/09/02 01:33:21;;;;;;;2.60;0.80;;;;;;;19.73;41.23;100589.03;18365924;32;20093;-55
2022/09/02 01:43:29;;;;;;;1.70;0.60;;;;;;;19.55;41.06;100594.09;18352200;32;20093;-55
2022/09/02 01:53:33;;;;;;;1.40;0.52;;;;;;;19.60;40.71;100593.91;18406632;32;20119;-56
2022/09/02 02:03:38;;;;;;;0.90;0.73;;;;;;;19.65;40.69;100599.91;18423806;32;20085;-56
2022/09/02 02:13:41;;;;;;;1.90;0.65;;;;;;;19.47;40.38;100601.44;18428450;32;20140;-56
2022/09/02 02:23:46;;;;;;;2.92;0.98;;;;;;;19.39;41.61;100596.44;18428119;32;20158;-56
2022/09/02 02:33:49;;;;;;;2.03;0.65;;;;;;;19.52;40.09;100588.91;18427631;32;20214;-55
2022/09/02 02:43:54;;;;;;;1.15;0.50;;;;;;;19.40;40.67;100598.16;18428258;32;20108;-55
2022/09/02 02:53:57;;;;;;;1.45;0.60;;;;;;;19.11;41.34;100584.19;18435845;32;20369;-55
2022/09/02 03:04:03;;;;;;;1.00;0.60;;;;;;;19.15;42.11;100591.06;18436023;32;20094;-55
2022/09/02 03:14:06;;;;;;;1.10;0.60;;;;;;;19.17;40.42;100593.69;18435253;32;20116;-55
2022/09/02 03:24:11;;;;;;;2.37;0.60;;;;;;;19.23;41.26;100588.19;18435770;32;20118;-56
2022/09/02 03:34:15;;;;;;;1.05;0.75;;;;;;;19.18;41.69;100590.13;18434850;32;20186;-55
2022/09/02 03:44:19;;;;;;;1.55;0.70;;;;;;;19.13;41.97;100583.22;18406598;32;20122;-55
2022/09/02 03:54:23;;;;;;;1.00;0.70;;;;;;;19.20;41.31;100589.16;18369572;32;20459;-56
2022/09/02 04:04:27;;;;;;;1.60;0.70;;;;;;;19.08;40.71;100586.94;18369865;32;20154;-55
2022/09/02 04:14:31;;;;;;;0.57;0.50;;;;;;;18.69;42.77;100591.72;18370750;32;20104;-55
2022/09/02 04:24:35;;;;;;;1.23;0.70;;;;;;;19.15;41.34;100591.06;18369443;32;20115;-55
2022/09/02 04:34:38;;;;;;;2.10;0.70;;;;;;;18.78;42.84;100584.38;18370295;32;20138;-56
2022/09/02 04:44:45;;;;;;;0.50;0.50;;;;;;;18.84;41.71;100592.09;18368726;32;20107;-57
2022/09/02 04:54:49;;;;;;;1.92;0.70;;;;;;;18.62;42.16;100591.94;18417553;32;20092;-56
2022/09/02 05:04:53;;;;;;;1.35;0.80;;;;;;;18.94;41.80;100596.16;18367976;32;20093;-55
2022/09/02 05:14:59;;;;;;;1.20;0.82;;;;;;;18.94;42.48;100598.81;18367369;32;20136;-56
2022/09/02 05:25:07;;;;;;;1.02;0.60;;;;;;;18.84;42.54;100598.28;18367659;32;20441;-56
2022/09/02 05:35:10;;;;;;;1.37;0.73;;;;;;;19.45;42.54;100603.28;18368259;32;20084;-56
2022/09/02 05:45:15;;;;;;;3.42;0.60;;;;;;;19.33;42.71;100594.00;18352409;32;20108;-59
2022/09/02 05:55:18;;;;;;;0.82;0.68;;;;;;;19.87;41.27;100592.03;18365955;32;20093;-55
2022/09/02 06:05:23;;;;;;;2.28;1.20;;;;;;;20.51;39.93;100584.28;18352586;32;20815;-56
2022/09/02 06:15:29;;;;;;;1.35;0.60;;;;;;;20.58;40.14;100580.44;18365010;32;20105;-54
2022/09/02 06:25:37;;;;;;;1.52;0.70;;;;;;;20.90;39.72;100586.22;18362146;32;20127;-55
2022/09/02 06:35:43;;;;;;;1.95;0.50;;;;;;;21.18;39.12;100595.63;18432888;32;20089;-54
2022/09/02 06:45:48;;;;;;;1.10;0.55;;;;;;;21.02;38.78;100591.91;18435642;32;20705;-54
2022/09/02 06:55:52;;;;;;;2.90;0.60;;;;;;;21.60;38.53;100582.28;18435669;32;20107;-54
2022/09/02 07:06:08;;;;;;;2.45;0.68;;;;;;;21.81;37.07;100592.87;18423383;32;20129;-55
2022/09/02 07:16:11;;;;;;;2.50;0.60;;;;;;;22.54;36.78;100593.00;18435093;32;20115;-56
2022/09/02 07:26:21;;;;;;;1.48;0.85;;;;;;;22.26;37.19;100586.34;18432721;32;20428;-56
2022/09/02 07:36:25;;;;;;;3.30;0.75;;;;;;;21.96;39.42;100589.53;18380511;32;20094;-56
2022/09/02 07:46:31;;;;;;;1.12;0.62;;;;;;;22.53;37.39;100593.09;18374319;32;20101;-56
2022/09/02 07:56:34;;;;;;;1.45;0.43;;;;;;;21.35;38.61;100578.94;18434129;32;20101;-56
2022/09/02 08:06:39;;;;;;;2.78;0.70;;;;;;;22.30;38.22;100593.25;18419729;32;20100;-56
2022/09/02 08:16:43;;;;;;;1.37;0.77;;;;;;;22.36;38.47;100584.09;18419176;32;20093;-56
2022/09/02 08:26:47;;;;;;;2.08;0.73;;;;;;;22.56;37.34;100585.78;18433039;32;20111;-56
2022/09/02 08:36:51;;;;;;;3.90;0.98;;;;;;;22.64;39.10;100590.75;18418838;32;20377;-56
2022/09/02 08:47:03;;;;;;;1.42;0.60;;;;;;;22.62;38.23;100584.62;18432109;32;20384;-56
2022/09/02 08:57:08;;;;;;;1.85;0.88;;;;;;;22.95;39.79;100577.66;18432409;32;20116;-56
2022/09/02 09:07:20;;;;;;;3.50;1.25;;;;;;;23.07;38.50;100579.72;18418961;32;20433;-56
2022/09/02 09:17:28;;;;;;;2.78;0.90;;;;;;;23.62;37.78;100564.44;18431817;32;20541;-56
2022/09/02 09:27:32;;;;;;;2.05;0.70;;;;;;;23.18;38.04;100565.81;18431443;32;20157;-56
2022/09/02 09:37:37;;;;;;;1.35;0.80;;;;;;;23.24;38.04;100564.66;18417617;32;20341;-57
2022/09/02 09:47:42;;;;;;;2.22;1.20;;;;;;;23.98;36.83;100563.31;18430599;32;20085;-56
2022/09/02 09:57:48;;;;;;;1.50;0.93;;;;;;;23.99;36.83;100556.19;18428815;32;20154;-56
2022/09/02 10:07:57;;;;;;;1.85;0.80;;;;;;;24.13;36.56;100551.91;18429141;32;20100;-56
2022/09/02 10:18:13;;;;;;;2.10;0.95;;;;;;;23.19;36.58;100548.06;18428474;32;20124;-57
2022/09/02 10:28:26;;;;;;;3.47;1.23;;;;;;;24.44;37.12;100540.31;18428168;32;20101;-56
2022/09/02 10:38:37;;;;;;;2.90;1.02;;;;;;;24.59;34.77;100533.22;18413137;32;20097;-56
2022/09/02 10:48:52;;;;;;;2.05;1.08;;;;;;;25.08;35.90;100529.44;18426843;32;20080;-57
2022/09/02 10:58:57;;;;;;;4.35;1.30;;;;;;;25.55;35.63;100534.63;18426671;32;20107;-56
2022/09/02 11:09:07;;;;;;;2.58;1.00;;;;;;;25.77;32.62;100523.41;18430726;32;20100;-56
2022/09/02 11:19:15;;;;;;;3.33;1.20;;;;;;;25.93;34.22;100526.91;18423775;32;20155;-56
2022/09/02 11:29:21;;;;;;;6.50;1.50;;;;;;;24.99;33.41;100523.78;18434331;32;20091;-56
2022/09/02 11:39:30;;;;;;;3.33;1.05;;;;;;;24.99;33.47;100511.31;18435828;32;20206;-56
2022/09/02 11:50:10;;;;;;;3.30;1.30;;;;;;;24.80;33.23;100507.09;18433829;32;20456;-57
2022/09/02 12:00:29;;;;;;;2.17;1.10;;;;;;;26.45;33.90;100496.69;18419838;32;20097;-56
2022/09/02 12:10:59;;;;;;;3.28;1.00;;;;;;;26.72;31.24;100489.56;18433359;32;20088;-56
2022/09/02 12:21:06;;;;;;;1.83;1.00;;;;;;;25.99;33.68;100486.38;18433340;32;20085;-57
2022/09/02 12:31:17;;;;;;;4.03;1.25;;;;;;;25.01;33.55;100480.03;18433240;32;20112;-56
2022/09/02 12:41:29;;;;;;;2.30;1.00;;;;;;;24.92;36.00;100484.13;18433126;32;20465;-56
2022/09/02 12:51:53;;;;;;;2.42;1.00;;;;;;;25.98;36.29;100471.28;18419297;32;20339;-57
2022/09/02 13:02:07;;;;;;;3.50;1.37;;;;;;;26.26;33.97;100466.78;18417791;32;20093;-57
2022/09/02 13:12:58;;;;;;;2.92;1.15;;;;;;;24.88;34.45;100457.72;18428148;32;20104;-57
2022/09/02 13:23:34;;;;;;;2.12;1.20;;;;;;;24.91;34.69;100446.84;18140756;32;20167;-56
2022/09/02 13:33:40;;;;;;;2.75;1.30;;;;;;;24.80;35.40;100450.16;18167343;32;20149;-56
2022/09/02 13:43:44;;;;;;;2.58;1.20;;;;;;;25.92;35.59;100448.47;18167276;32;20154;-56
2022/09/02 13:53:50;;;;;;;3.70;1.15;;;;;;;26.11;33.28;100434.75;18221026;32;20441;-57
2022/09/02 14:04:15;;;;;;;4.05;1.37;;;;;;;26.17;33.69;100430.81;18427483;32;20115;-56
2022/09/02 14:14:22;;;;;;;2.72;1.10;;;;;;;26.70;33.37;100422.75;18428331;32;20107;-57
2022/09/02 14:24:27;;;;;;;4.43;1.40;;;;;;;25.70;32.48;100427.66;18428539;32;20111;-56
2022/09/02 14:34:36;;;;;;;2.90;1.33;;;;;;;24.72;35.00;100425.75;18427806;32;20161;-56
2022/09/02 14:44:39;;;;;;;1.65;1.10;;;;;;;25.06;34.16;100435.22;18430478;32;20089;-57
2022/09/02 14:54:47;;;;;;;2.60;1.20;;;;;;;25.54;33.14;100430.47;18415207;32;20184;-57
2022/09/02 15:04:50;;;;;;;3.42;1.02;;;;;;;25.27;36.54;100432.12;18371825;32;20089;-56
2022/09/02 15:14:55;;;;;;;5.10;1.40;;;;;;;24.37;35.98;100425.12;18370825;32;20099;-56
2022/09/02 15:24:58;;;;;;;3.40;1.10;;;;;;;25.49;36.43;100436.09;18371281;32;20089;-56
2022/09/02 15:35:03;;;;;;;3.25;1.40;;;;;;;25.29;35.95;100435.56;18369436;32;20365;-56
2022/09/02 15:45:08;;;;;;;4.62;1.80;;;;;;;23.70;36.40;100433.44;18374820;32;20452;-56
2022/09/02 15:55:13;;;;;;;4.22;1.70;;;;;;;24.04;38.98;100439.50;18375175;32;20093;-56
2022/09/02 16:05:16;;;;;;;5.35;1.60;;;;;;;23.69;41.65;100451.22;18353747;32;20089;-56
2022/09/02 16:15:26;;;;;;;5.62;1.85;;;;;;;23.49;42.44;100462.12;18351396;32;20128;-57
2022/09/02 16:25:36;;;;;;;5.03;1.60;;;;;;;22.53;43.64;100468.06;18415247;32;20428;-56
2022/09/02 16:35:41;;;;;;;8.48;2.03;;;;;;;22.49;43.35;100466.47;18418862;32;20096;-56
2022/09/02 16:45:45;;;;;;;5.75;1.90;;;;;;;22.15;44.30;100487.63;18433194;32;20137;-56
2022/09/02 16:55:49;;;;;;;6.03;1.60;;;;;;;22.97;43.06;100498.63;18431347;32;20097;-56
2022/09/02 17:05:53;;;;;;;3.42;1.50;;;;;;;22.47;44.44;100511.75;18432076;32;20132;-56
2022/09/02 17:15:57;;;;;;;3.97;1.40;;;;;;;22.79;43.92;100511.94;18418042;32;20164;-56
2022/09/02 17:26:01;;;;;;;4.25;1.83;;;;;;;22.55;44.86;100506.09;18427929;32;20354;-57
2022/09/02 17:36:07;;;;;;;5.00;1.80;;;;;;;22.59;46.42;100519.16;18357498;32;20167;-56
2022/09/02 17:46:11;;;;;;;4.62;1.67;;;;;;;22.32;47.73;100524.00;18368354;32;20426;-56
2022/09/02 17:56:31;;;;;;;3.95;1.50;;;;;;;22.04;48.59;100528.03;18418518;32;20162;-57
2022/09/02 18:06:37;;;;;;;6.90;1.73;;;;;;;21.59;51.12;100536.28;18409901;32;20113;-57
2022/09/02 18:16:48;;;;;;;5.22;2.00;;;;;;;21.57;50.44;100538.13;18428312;32;20088;-57
2022/09/02 18:27:01;;;;;;;4.25;1.85;;;;;;;21.23;52.14;100546.78;18419494;32;20097;-57
2022/09/02 18:37:12;;;;;;;5.13;1.70;;;;;;;20.95;52.01;100546.22;18422556;32;20107;-57
2022/09/02 18:47:19;;;;;;;3.67;1.90;;;;;;;20.61;54.12;100548.50;18434138;32;20111;-57
2022/09/02 18:57:25;;;;;;;4.20;1.83;;;;;;;20.41;55.10;100551.94;18432297;32;20112;-57
2022/09/02 19:17:58;;;;;;;3.97;1.80;;;;;;;19.77;55.97;100554.44;18479537;32;20097;-57
2022/09/02 19:28:04;;;;;;;3.70;1.85;;;;;;;19.56;56.28;100558.75;18493663;32;20672;-57
2022/09/02 19:38:09;;;;;;;4.68;1.95;;;;;;;19.35;57.83;100569.22;18478105;32;20096;-57
2022/09/02 19:48:13;;;;;;;6.28;2.05;;;;;;;18.95;58.35;100570.59;18496375;32;20108;-57
2022/09/02 19:58:18;;;;;;;3.70;2.05;;;;;;;18.96;57.89;100575.81;18487694;32;20434;-57
2022/09/02 20:08:23;;;;;;;4.93;2.10;;;;;;;18.74;59.08;100582.75;18444802;32;20096;-57
2022/09/02 20:18:28;;;;;;;6.37;1.90;;;;;;;18.46;59.79;100570.44;18453380;32;20563;-58
2022/09/02 20:28:35;;;;;;;5.20;2.20;;;;;;;18.27;60.94;100577.19;18470613;32;20096;-57
2022/09/02 20:38:55;;;;;;;4.40;2.00;;;;;;;18.09;61.60;100578.63;18449991;32;20154;-57
2022/09/02 20:49:08;;;;;;;7.80;2.78;;;;;;;17.98;62.11;100578.06;18437196;32;20132;-57
2022/09/02 20:59:22;;;;;;;6.37;2.50;;;;;;;18.22;61.42;100586.19;18438366;32;20080;-57
2022/09/02 21:09:36;;;;;;;8.35;2.60;;;;;;;18.12;62.50;100590.88;18429222;32;20456;-57
2022/09/02 21:19:44;;;;;;;4.53;2.33;;;;;;;18.23;62.65;100580.00;18428858;32;20147;-57
2022/09/02 21:29:53;;;;;;;4.35;1.98;;;;;;;18.35;63.08;100584.00;18428710;32;20101;-57
2022/09/02 21:40:06;;;;;;;4.05;2.25;;;;;;;18.39;62.21;100588.28;18427895;32;20099;-57
2022/09/02 21:50:17;;;;;;;6.22;2.30;;;;;;;18.32;61.94;100584.97;18423743;32;20077;-57
2022/09/02 22:00:25;;;;;;;5.12;2.20;;;;;;;18.17;62.65;100584.53;18402522;32;20081;-57
2022/09/02 22:10:34;;;;;;;5.60;2.35;;;;;;;18.03;62.66;100584.09;18362502;32;20175;-57
2022/09/02 22:20:43;;;;;;;6.60;2.60;;;;;;;17.82;63.32;100594.34;18362849;32;20104;-57
2022/09/02 22:30:58;;;;;;;5.78;2.33;;;;;;;17.57;64.18;100589.78;18395834;32;160458;-57
2022/09/02 22:41:14;;;;;;;6.20;2.50;;;;;;;17.49;63.55;100599.69;18424528;32;20084;-57
2022/09/02 23:02:07;;;;;;;6.05;2.60;;;;;;;17.04;64.43;100567.47;18099451;32;20137;-57
2022/09/02 23:12:27;;;;;;;5.37;2.70;;;;;;;16.87;64.78;100583.72;18106492;32;20775;-57
2022/09/02 23:22:42;;;;;;;6.60;2.75;;;;;;;16.77;64.91;100574.31;18106354;32;20122;-57
2022/09/02 23:33:02;;;;;;;6.35;2.37;;;;;;;16.51;66.00;100573.19;18389886;32;20789;-57
2022/09/02 23:43:07;;;;;;;7.78;2.50;;;;;;;16.58;64.81;100565.97;18431584;32;20081;-56
2022/09/02 23:53:14;;;;;;;4.55;2.30;;;;;;;16.28;66.02;100560.56;18431296;32;20474;-57
